sensor_id;sensor_type;location;lat;lon;timestamp;P1;durP1;ratioP1;P2;durP2;ratioP2
74267;SDS011;62638;51.362;12.472;2023-04-01T00:01:02;0.40;;;0.30;;
74267;SDS011;62638;51.362;12.472;2023-04-01T00:03:29;1.45;;;0.80;;
74267;SDS011;62638;51.362;12.472;2023-04-01T00:05:56;1.02;;;0.47;;
74267;SDS011;62638;51.362;12.472;2023-04-01T00:08:22;0.75;;;0.32;;
74267;SDS011;62638;51.362;12.472;2023-04-01T00:10:49;1.02;;;0.45;;
74267;SDS011;62638;51.362;12.472;2023-04-01T00:13:15;1.13;;;0.55;;
74267;SDS011;62638;51.362;12.472;2023-04-01T00:15:40;2.10;;;0.43;;
74267;SDS011;62638;51.362;12.472;2023-04-01T00:18:06;1.05;;;0.38;;
74267;SDS011;62638;51.362;12.472;2023-04-01T00:20:31;1.67;;;0.43;;
74267;SDS011;62638;51.362;12.472;2023-04-01T00:22:57;0.77;;;0.30;;
74267;SDS011;62638;51.362;12.472;2023-04-01T00:25:22;0.80;;;0.30;;
74267;SDS011;62638;51.362;12.472;2023-04-01T00:27:48;1.35;;;0.40;;
74267;SDS011;62638;51.362;12.472;2023-04-01T00:30:14;0.80;;;0.40;;
74267;SDS011;62638;51.362;12.472;2023-04-01T00:32:40;1.73;;;0.60;;
74267;SDS011;62638;51.362;12.472;2023-04-01T00:35:05;1.02;;;0.40;;
74267;SDS011;62638;51.362;12.472;2023-04-01T00:37:31;0.90;;;0.60;;
74267;SDS011;62638;51.362;12.472;2023-04-01T00:39:59;1.65;;;0.50;;
74267;SDS011;62638;51.362;12.472;2023-04-01T00:42:25;0.40;;;0.20;;
74267;SDS011;62638;51.362;12.472;2023-04-01T00:44:51;1.58;;;0.30;;
74267;SDS011;62638;51.362;12.472;2023-04-01T00:47:17;2.30;;;0.45;;
74267;SDS011;62638;51.362;12.472;2023-04-01T00:49:47;1.20;;;0.52;;
74267;SDS011;62638;51.362;12.472;2023-04-01T00:52:15;2.72;;;0.50;;
74267;SDS011;62638;51.362;12.472;2023-04-01T00:54:45;0.80;;;0.50;;
74267;SDS011;62638;51.362;12.472;2023-04-01T00:57:19;2.63;;;0.40;;
74267;SDS011;62638;51.362;12.472;2023-04-01T00:59:50;1.48;;;0.55;;
74267;SDS011;62638;51.362;12.472;2023-04-01T01:02:19;5.20;;;0.90;;
74267;SDS011;62638;51.362;12.472;2023-04-01T01:04:44;0.50;;;0.40;;
74267;SDS011;62638;51.362;12.472;2023-04-01T01:10:07;1.08;;;0.43;;
74267;SDS011;62638;51.362;12.472;2023-04-01T01:12:55;0.52;;;0.25;;
74267;SDS011;62638;51.362;12.472;2023-04-01T01:15:34;1.17;;;0.57;;
74267;SDS011;62638;51.362;12.472;2023-04-01T01:27:09;0.40;;;0.30;;
74267;SDS011;62638;51.362;12.472;2023-04-01T01:37:54;3.72;;;0.50;;
74267;SDS011;62638;51.362;12.472;2023-04-01T01:40:24;0.50;;;0.30;;
74267;SDS011;62638;51.362;12.472;2023-04-01T01:42:53;0.75;;;0.40;;
74267;SDS011;62638;51.362;12.472;2023-04-01T01:45:23;1.17;;;0.60;;
74267;SDS011;62638;51.362;12.472;2023-04-01T01:47:51;1.52;;;0.75;;
74267;SDS011;62638;51.362;12.472;2023-04-01T01:50:17;3.38;;;0.70;;
74267;SDS011;62638;51.362;12.472;2023-04-01T01:52:44;1.52;;;0.60;;
74267;SDS011;62638;51.362;12.472;2023-04-01T01:58:16;0.82;;;0.30;;
74267;SDS011;62638;51.362;12.472;2023-04-01T02:00:47;0.65;;;0.30;;
74267;SDS011;62638;51.362;12.472;2023-04-01T02:03:17;1.23;;;0.30;;
74267;SDS011;62638;51.362;12.472;2023-04-01T02:05:46;1.58;;;0.50;;
74267;SDS011;62638;51.362;12.472;2023-04-01T02:08:13;1.13;;;0.60;;
74267;SDS011;62638;51.362;12.472;2023-04-01T02:10:45;1.50;;;0.75;;
74267;SDS011;62638;51.362;12.472;2023-04-01T02:14:03;1.27;;;0.65;;
74267;SDS011;62638;51.362;12.472;2023-04-01T02:16:27;0.63;;;0.38;;
74267;SDS011;62638;51.362;12.472;2023-04-01T02:18:56;1.17;;;0.47;;
74267;SDS011;62638;51.362;12.472;2023-04-01T02:21:24;0.95;;;0.63;;
74267;SDS011;62638;51.362;12.472;2023-04-01T02:23:53;2.88;;;0.40;;
74267;SDS011;62638;51.362;12.472;2023-04-01T02:26:21;4.82;;;0.52;;
74267;SDS011;62638;51.362;12.472;2023-04-01T02:28:50;1.20;;;0.40;;
74267;SDS011;62638;51.362;12.472;2023-04-01T02:31:16;1.35;;;0.30;;
74267;SDS011;62638;51.362;12.472;2023-04-01T02:33:41;1.77;;;0.70;;
74267;SDS011;62638;51.362;12.472;2023-04-01T02:36:10;0.40;;;0.25;;
74267;SDS011;62638;51.362;12.472;2023-04-01T02:38:37;1.40;;;0.75;;
74267;SDS011;62638;51.362;12.472;2023-04-01T02:41:03;1.10;;;0.32;;
74267;SDS011;62638;51.362;12.472;2023-04-01T02:43:30;0.60;;;0.50;;
74267;SDS011;62638;51.362;12.472;2023-04-01T02:45:55;0.60;;;0.30;;
74267;SDS011;62638;51.362;12.472;2023-04-01T02:48:20;1.05;;;0.50;;
74267;SDS011;62638;51.362;12.472;2023-04-01T02:50:46;4.30;;;0.50;;
74267;SDS011;62638;51.362;12.472;2023-04-01T02:53:11;3.43;;;0.33;;
74267;SDS011;62638;51.362;12.472;2023-04-01T02:55:36;0.50;;;0.30;;
74267;SDS011;62638;51.362;12.472;2023-04-01T02:58:02;0.88;;;0.32;;
74267;SDS011;62638;51.362;12.472;2023-04-01T03:00:28;0.47;;;0.45;;
74267;SDS011;62638;51.362;12.472;2023-04-01T03:02:53;1.38;;;0.35;;
74267;SDS011;62638;51.362;12.472;2023-04-01T03:05:18;0.38;;;0.35;;
74267;SDS011;62638;51.362;12.472;2023-04-01T03:07:44;0.52;;;0.28;;
74267;SDS011;62638;51.362;12.472;2023-04-01T03:10:09;0.35;;;0.30;;
74267;SDS011;62638;51.362;12.472;2023-04-01T03:12:35;3.70;;;0.60;;
74267;SDS011;62638;51.362;12.472;2023-04-01T03:15:00;0.90;;;0.60;;
74267;SDS011;62638;51.362;12.472;2023-04-01T03:17:26;0.35;;;0.30;;
74267;SDS011;62638;51.362;12.472;2023-04-01T03:19:51;5.33;;;0.60;;
74267;SDS011;62638;51.362;12.472;2023-04-01T03:22:16;3.53;;;0.60;;
74267;SDS011;62638;51.362;12.472;2023-04-01T03:24:43;1.33;;;0.30;;
74267;SDS011;62638;51.362;12.472;2023-04-01T03:27:09;0.73;;;0.40;;
74267;SDS011;62638;51.362;12.472;2023-04-01T03:29:34;5.70;;;0.57;;
74267;SDS011;62638;51.362;12.472;2023-04-01T03:31:59;2.50;;;0.43;;
74267;SDS011;62638;51.362;12.472;2023-04-01T03:34:25;0.30;;;0.30;;
74267;SDS011;62638;51.362;12.472;2023-04-01T03:36:51;0.73;;;0.50;;
74267;SDS011;62638;51.362;12.472;2023-04-01T03:39:16;1.25;;;0.50;;
74267;SDS011;62638;51.362;12.472;2023-04-01T03:41:43;2.17;;;0.43;;
74267;SDS011;62638;51.362;12.472;2023-04-01T03:44:09;0.85;;;0.60;;
74267;SDS011;62638;51.362;12.472;2023-04-01T03:46:35;1.27;;;0.85;;
74267;SDS011;62638;51.362;12.472;2023-04-01T03:49:00;0.75;;;0.40;;
74267;SDS011;62638;51.362;12.472;2023-04-01T03:51:25;1.50;;;0.33;;
74267;SDS011;62638;51.362;12.472;2023-04-01T03:53:50;0.50;;;0.20;;
74267;SDS011;62638;51.362;12.472;2023-04-01T03:56:16;1.08;;;0.40;;
74267;SDS011;62638;51.362;12.472;2023-04-01T03:58:41;1.23;;;0.50;;
74267;SDS011;62638;51.362;12.472;2023-04-01T04:01:17;0.67;;;0.47;;
74267;SDS011;62638;51.362;12.472;2023-04-01T04:03:45;0.63;;;0.38;;
74267;SDS011;62638;51.362;12.472;2023-04-01T04:06:11;0.63;;;0.40;;
74267;SDS011;62638;51.362;12.472;2023-04-01T04:08:40;2.30;;;0.40;;
74267;SDS011;62638;51.362;12.472;2023-04-01T04:11:05;1.08;;;0.50;;
74267;SDS011;62638;51.362;12.472;2023-04-01T04:13:30;1.30;;;0.52;;
74267;SDS011;62638;51.362;12.472;2023-04-01T04:15:56;2.00;;;0.60;;
74267;SDS011;62638;51.362;12.472;2023-04-01T04:18:21;0.60;;;0.50;;
74267;SDS011;62638;51.362;12.472;2023-04-01T04:20:46;1.93;;;0.50;;
74267;SDS011;62638;51.362;12.472;2023-04-01T04:23:15;1.40;;;0.50;;
74267;SDS011;62638;51.362;12.472;2023-04-01T04:25:40;0.70;;;0.57;;
74267;SDS011;62638;51.362;12.472;2023-04-01T04:28:05;1.30;;;0.40;;
74267;SDS011;62638;51.362;12.472;2023-04-01T04:30:30;1.53;;;0.33;;
74267;SDS011;62638;51.362;12.472;2023-04-01T04:32:57;0.75;;;0.38;;
74267;SDS011;62638;51.362;12.472;2023-04-01T04:35:22;1.27;;;0.33;;
74267;SDS011;62638;51.362;12.472;2023-04-01T04:37:47;0.40;;;0.40;;
74267;SDS011;62638;51.362;12.472;2023-04-01T04:40:12;0.70;;;0.50;;
74267;SDS011;62638;51.362;12.472;2023-04-01T04:42:38;2.10;;;0.67;;
74267;SDS011;62638;51.362;12.472;2023-04-01T04:45:03;2.67;;;0.87;;
74267;SDS011;62638;51.362;12.472;2023-04-01T04:47:29;0.80;;;0.80;;
74267;SDS011;62638;51.362;12.472;2023-04-01T04:49:54;1.97;;;0.80;;
74267;SDS011;62638;51.362;12.472;2023-04-01T04:52:19;2.20;;;0.52;;
74267;SDS011;62638;51.362;12.472;2023-04-01T04:54:44;1.40;;;0.70;;
74267;SDS011;62638;51.362;12.472;2023-04-01T04:57:10;1.13;;;0.38;;
74267;SDS011;62638;51.362;12.472;2023-04-01T04:59:35;4.00;;;0.55;;
74267;SDS011;62638;51.362;12.472;2023-04-01T05:02:01;5.93;;;0.93;;
74267;SDS011;62638;51.362;12.472;2023-04-01T05:04:26;0.60;;;0.40;;
74267;SDS011;62638;51.362;12.472;2023-04-01T05:06:52;4.63;;;0.57;;
74267;SDS011;62638;51.362;12.472;2023-04-01T05:09:17;1.00;;;0.40;;
74267;SDS011;62638;51.362;12.472;2023-04-01T05:11:42;0.60;;;0.60;;
74267;SDS011;62638;51.362;12.472;2023-04-01T05:14:14;4.20;;;1.13;;
74267;SDS011;62638;51.362;12.472;2023-04-01T05:16:40;3.08;;;0.60;;
74267;SDS011;62638;51.362;12.472;2023-04-01T05:19:05;4.40;;;0.67;;
74267;SDS011;62638;51.362;12.472;2023-04-01T05:21:31;1.10;;;0.45;;
74267;SDS011;62638;51.362;12.472;2023-04-01T05:23:56;0.43;;;0.30;;
74267;SDS011;62638;51.362;12.472;2023-04-01T05:26:21;1.17;;;0.60;;
74267;SDS011;62638;51.362;12.472;2023-04-01T05:28:47;1.37;;;0.50;;
74267;SDS011;62638;51.362;12.472;2023-04-01T05:31:12;2.00;;;0.50;;
74267;SDS011;62638;51.362;12.472;2023-04-01T05:33:37;0.50;;;0.40;;
74267;SDS011;62638;51.362;12.472;2023-04-01T05:36:10;0.43;;;0.30;;
74267;SDS011;62638;51.362;12.472;2023-04-01T05:38:37;1.63;;;0.52;;
74267;SDS011;62638;51.362;12.472;2023-04-01T05:41:03;0.57;;;0.38;;
74267;SDS011;62638;51.362;12.472;2023-04-01T05:43:28;0.90;;;0.40;;
74267;SDS011;62638;51.362;12.472;2023-04-01T05:45:55;0.63;;;0.40;;
74267;SDS011;62638;51.362;12.472;2023-04-01T05:48:20;0.82;;;0.32;;
74267;SDS011;62638;51.362;12.472;2023-04-01T05:50:46;1.67;;;0.43;;
74267;SDS011;62638;51.362;12.472;2023-04-01T05:53:11;1.60;;;0.25;;
74267;SDS011;62638;51.362;12.472;2023-04-01T05:55:36;0.40;;;0.40;;
74267;SDS011;62638;51.362;12.472;2023-04-01T05:58:02;1.27;;;0.30;;
74267;SDS011;62638;51.362;12.472;2023-04-01T06:00:27;0.63;;;0.40;;
74267;SDS011;62638;51.362;12.472;2023-04-01T06:02:52;3.30;;;0.75;;
74267;SDS011;62638;51.362;12.472;2023-04-01T06:05:19;2.30;;;0.60;;
74267;SDS011;62638;51.362;12.472;2023-04-01T06:07:51;1.02;;;0.28;;
74267;SDS011;62638;51.362;12.472;2023-04-01T06:10:22;0.30;;;0.28;;
74267;SDS011;62638;51.362;12.472;2023-04-01T06:13:05;0.80;;;0.30;;
74267;SDS011;62638;51.362;12.472;2023-04-01T06:15:48;1.00;;;0.43;;
74267;SDS011;62638;51.362;12.472;2023-04-01T06:23:48;1.88;;;0.30;;
74267;SDS011;62638;51.362;12.472;2023-04-01T06:26:34;1.08;;;0.50;;
74267;SDS011;62638;51.362;12.472;2023-04-01T06:29:26;1.77;;;0.52;;
74267;SDS011;62638;51.362;12.472;2023-04-01T06:32:05;0.20;;;0.20;;
74267;SDS011;62638;51.362;12.472;2023-04-01T06:42:19;0.35;;;0.30;;
74267;SDS011;62638;51.362;12.472;2023-04-01T06:49:56;1.77;;;0.40;;
74267;SDS011;62638;51.362;12.472;2023-04-01T06:52:55;0.20;;;0.20;;
74267;SDS011;62638;51.362;12.472;2023-04-01T06:58:37;0.98;;;0.38;;
74267;SDS011;62638;51.362;12.472;2023-04-01T07:01:14;1.02;;;0.40;;
74267;SDS011;62638;51.362;12.472;2023-04-01T07:03:53;0.77;;;0.50;;
74267;SDS011;62638;51.362;12.472;2023-04-01T07:06:32;0.40;;;0.35;;
74267;SDS011;62638;51.362;12.472;2023-04-01T07:09:03;1.90;;;0.47;;
74267;SDS011;62638;51.362;12.472;2023-04-01T07:11:34;1.10;;;0.45;;
74267;SDS011;62638;51.362;12.472;2023-04-01T07:14:03;2.97;;;0.90;;
74267;SDS011;62638;51.362;12.472;2023-04-01T07:19:18;3.78;;;0.80;;
74267;SDS011;62638;51.362;12.472;2023-04-01T07:21:45;0.88;;;0.60;;
74267;SDS011;62638;51.362;12.472;2023-04-01T07:27:15;2.92;;;0.63;;
74267;SDS011;62638;51.362;12.472;2023-04-01T07:29:40;1.33;;;0.63;;
74267;SDS011;62638;51.362;12.472;2023-04-01T07:49:49;0.40;;;0.20;;
74267;SDS011;62638;51.362;12.472;2023-04-01T07:52:35;0.32;;;0.20;;
74267;SDS011;62638;51.362;12.472;2023-04-01T08:00:58;0.98;;;0.50;;
74267;SDS011;62638;51.362;12.472;2023-04-01T08:03:40;0.38;;;0.30;;
74267;SDS011;62638;51.362;12.472;2023-04-01T08:06:14;2.72;;;0.30;;
74267;SDS011;62638;51.362;12.472;2023-04-01T08:14:29;1.10;;;0.30;;
74267;SDS011;62638;51.362;12.472;2023-04-01T08:17:10;0.65;;;0.35;;
74267;SDS011;62638;51.362;12.472;2023-04-01T08:22:20;0.80;;;0.22;;
74267;SDS011;62638;51.362;12.472;2023-04-01T08:24:51;1.20;;;0.40;;
74267;SDS011;62638;51.362;12.472;2023-04-01T08:27:21;0.75;;;0.22;;
74267;SDS011;62638;51.362;12.472;2023-04-01T08:29:55;0.80;;;0.60;;
74267;SDS011;62638;51.362;12.472;2023-04-01T08:32:37;1.45;;;0.30;;
74267;SDS011;62638;51.362;12.472;2023-04-01T08:35:09;0.80;;;0.28;;
74267;SDS011;62638;51.362;12.472;2023-04-01T08:43:35;0.13;;;0.10;;
74267;SDS011;62638;51.362;12.472;2023-04-01T08:46:29;0.63;;;0.20;;
74267;SDS011;62638;51.362;12.472;2023-04-01T08:49:12;0.20;;;0.10;;
74267;SDS011;62638;51.362;12.472;2023-04-01T09:06:46;1.80;;;0.43;;
74267;SDS011;62638;51.362;12.472;2023-04-01T09:12:22;3.15;;;0.35;;
74267;SDS011;62638;51.362;12.472;2023-04-01T09:18:12;0.55;;;0.35;;
74267;SDS011;62638;51.362;12.472;2023-04-01T09:34:36;0.43;;;0.10;;
74267;SDS011;62638;51.362;12.472;2023-04-01T09:37:18;0.60;;;0.20;;
74267;SDS011;62638;51.362;12.472;2023-04-01T09:54:24;1.38;;;0.25;;
74267;SDS011;62638;51.362;12.472;2023-04-01T10:00:39;0.13;;;0.00;;
74267;SDS011;62638;51.362;12.472;2023-04-01T10:03:37;2.63;;;0.40;;
74267;SDS011;62638;51.362;12.472;2023-04-01T10:06:25;1.25;;;0.38;;
74267;SDS011;62638;51.362;12.472;2023-04-01T10:12:17;0.93;;;0.32;;
74267;SDS011;62638;51.362;12.472;2023-04-01T10:15:34;0.40;;;0.20;;
74267;SDS011;62638;51.362;12.472;2023-04-01T10:18:24;0.75;;;0.40;;
74267;SDS011;62638;51.362;12.472;2023-04-01T10:21:25;0.52;;;0.30;;
74267;SDS011;62638;51.362;12.472;2023-04-01T10:26:52;0.85;;;0.35;;
74267;SDS011;62638;51.362;12.472;2023-04-01T10:29:58;0.82;;;0.40;;
74267;SDS011;62638;51.362;12.472;2023-04-01T10:38:48;5.95;;;0.50;;
74267;SDS011;62638;51.362;12.472;2023-04-01T10:49:44;0.65;;;0.40;;
74267;SDS011;62638;51.362;12.472;2023-04-01T10:58:27;1.95;;;0.40;;
74267;SDS011;62638;51.362;12.472;2023-04-01T11:01:22;1.73;;;0.50;;
74267;SDS011;62638;51.362;12.472;2023-04-01T11:12:47;0.22;;;0.13;;
74267;SDS011;62638;51.362;12.472;2023-04-01T11:18:56;1.00;;;0.43;;
74267;SDS011;62638;51.362;12.472;2023-04-01T11:27:01;1.38;;;0.28;;
74267;SDS011;62638;51.362;12.472;2023-04-01T11:32:46;0.55;;;0.40;;
74267;SDS011;62638;51.362;12.472;2023-04-01T11:55:53;0.40;;;0.28;;
74267;SDS011;62638;51.362;12.472;2023-04-01T12:01:29;1.17;;;0.38;;
74267;SDS011;62638;51.362;12.472;2023-04-01T12:07:32;0.73;;;0.40;;
74267;SDS011;62638;51.362;12.472;2023-04-01T12:13:16;1.58;;;0.70;;
74267;SDS011;62638;51.362;12.472;2023-04-01T12:21:25;1.15;;;0.17;;
74267;SDS011;62638;51.362;12.472;2023-04-01T12:29:58;0.47;;;0.20;;
74267;SDS011;62638;51.362;12.472;2023-04-01T12:43:44;0.40;;;0.40;;
74267;SDS011;62638;51.362;12.472;2023-04-01T12:51:29;0.38;;;0.20;;
74267;SDS011;62638;51.362;12.472;2023-04-01T12:59:44;0.77;;;0.40;;
74267;SDS011;62638;51.362;12.472;2023-04-01T13:03:19;0.70;;;0.40;;
74267;SDS011;62638;51.362;12.472;2023-04-01T13:05:24;0.35;;;0.30;;
74267;SDS011;62638;51.362;12.472;2023-04-01T13:08:30;0.57;;;0.45;;
74267;SDS011;62638;51.362;12.472;2023-04-01T13:11:31;0.25;;;0.20;;
74267;SDS011;62638;51.362;12.472;2023-04-01T13:17:19;3.20;;;0.30;;
74267;SDS011;62638;51.362;12.472;2023-04-01T13:20:03;0.17;;;0.13;;
74267;SDS011;62638;51.362;12.472;2023-04-01T13:23:03;0.32;;;0.20;;
74267;SDS011;62638;51.362;12.472;2023-04-01T13:28:29;0.40;;;0.20;;
74267;SDS011;62638;51.362;12.472;2023-04-01T13:31:10;1.10;;;0.43;;
74267;SDS011;62638;51.362;12.472;2023-04-01T13:34:00;0.10;;;0.10;;
74267;SDS011;62638;51.362;12.472;2023-04-01T13:36:54;0.25;;;0.20;;
74267;SDS011;62638;51.362;12.472;2023-04-01T13:42:26;0.63;;;0.20;;
74267;SDS011;62638;51.362;12.472;2023-04-01T13:45:15;0.45;;;0.20;;
74267;SDS011;62638;51.362;12.472;2023-04-01T13:47:57;0.32;;;0.20;;
74267;SDS011;62638;51.362;12.472;2023-04-01T13:50:46;0.55;;;0.25;;
74267;SDS011;62638;51.362;12.472;2023-04-01T13:53:27;0.10;;;0.08;;
74267;SDS011;62638;51.362;12.472;2023-04-01T13:59:05;0.50;;;0.10;;
74267;SDS011;62638;51.362;12.472;2023-04-01T14:01:39;0.50;;;0.15;;
74267;SDS011;62638;51.362;12.472;2023-04-01T14:04:25;0.10;;;0.10;;
74267;SDS011;62638;51.362;12.472;2023-04-01T14:07:31;1.33;;;0.30;;
74267;SDS011;62638;51.362;12.472;2023-04-01T14:10:08;0.47;;;0.20;;
74267;SDS011;62638;51.362;12.472;2023-04-01T14:15:22;3.40;;;0.40;;
74267;SDS011;62638;51.362;12.472;2023-04-01T14:17:56;0.47;;;0.28;;
74267;SDS011;62638;51.362;12.472;2023-04-01T14:26:07;0.28;;;0.28;;
74267;SDS011;62638;51.362;12.472;2023-04-01T14:34:26;0.20;;;0.17;;
74267;SDS011;62638;51.362;12.472;2023-04-01T14:37:08;1.70;;;0.20;;
74267;SDS011;62638;51.362;12.472;2023-04-01T14:42:53;0.65;;;0.30;;
74267;SDS011;62638;51.362;12.472;2023-04-01T14:47:56;1.30;;;0.38;;
74267;SDS011;62638;51.362;12.472;2023-04-01T14:50:26;0.95;;;0.30;;
74267;SDS011;62638;51.362;12.472;2023-04-01T14:53:11;2.22;;;0.40;;
74267;SDS011;62638;51.362;12.472;2023-04-01T14:55:50;0.40;;;0.30;;
74267;SDS011;62638;51.362;12.472;2023-04-01T14:58:17;0.80;;;0.35;;
74267;SDS011;62638;51.362;12.472;2023-04-01T15:00:47;0.20;;;0.20;;
74267;SDS011;62638;51.362;12.472;2023-04-01T15:06:06;0.40;;;0.20;;
74267;SDS011;62638;51.362;12.472;2023-04-01T15:09:06;0.60;;;0.20;;
74267;SDS011;62638;51.362;12.472;2023-04-01T15:11:40;0.90;;;0.30;;
74267;SDS011;62638;51.362;12.472;2023-04-01T15:17:19;0.13;;;0.13;;
74267;SDS011;62638;51.362;12.472;2023-04-01T15:23:05;1.25;;;0.40;;
74267;SDS011;62638;51.362;12.472;2023-04-01T15:25:51;2.42;;;1.15;;
74267;SDS011;62638;51.362;12.472;2023-04-01T15:28:33;1.30;;;0.70;;
74267;SDS011;62638;51.362;12.472;2023-04-01T15:31:04;0.88;;;0.45;;
74267;SDS011;62638;51.362;12.472;2023-04-01T15:33:39;0.43;;;0.30;;
74267;SDS011;62638;51.362;12.472;2023-04-01T15:36:16;1.00;;;0.40;;
74267;SDS011;62638;51.362;12.472;2023-04-01T15:42:01;0.50;;;0.40;;
74267;SDS011;62638;51.362;12.472;2023-04-01T15:50:12;2.27;;;0.57;;
74267;SDS011;62638;51.362;12.472;2023-04-01T15:58:34;2.50;;;0.45;;
74267;SDS011;62638;51.362;12.472;2023-04-01T16:01:07;1.90;;;0.50;;
74267;SDS011;62638;51.362;12.472;2023-04-01T16:06:35;0.77;;;0.40;;
74267;SDS011;62638;51.362;12.472;2023-04-01T16:20:20;1.00;;;0.32;;
74267;SDS011;62638;51.362;12.472;2023-04-01T16:22:53;1.33;;;0.55;;
74267;SDS011;62638;51.362;12.472;2023-04-01T16:37:09;0.80;;;0.50;;
74267;SDS011;62638;51.362;12.472;2023-04-01T16:39:43;1.00;;;0.55;;
74267;SDS011;62638;51.362;12.472;2023-04-01T16:48:09;0.95;;;0.40;;
74267;SDS011;62638;51.362;12.472;2023-04-01T16:50:39;2.78;;;0.70;;
74267;SDS011;62638;51.362;12.472;2023-04-01T16:55:48;4.20;;;0.80;;
74267;SDS011;62638;51.362;12.472;2023-04-01T16:58:26;2.70;;;1.00;;
74267;SDS011;62638;51.362;12.472;2023-04-01T17:01:12;2.90;;;1.15;;
74267;SDS011;62638;51.362;12.472;2023-04-01T17:03:49;3.60;;;1.55;;
74267;SDS011;62638;51.362;12.472;2023-04-01T17:06:22;2.22;;;0.90;;
74267;SDS011;62638;51.362;12.472;2023-04-01T17:09:20;3.90;;;1.00;;
74267;SDS011;62638;51.362;12.472;2023-04-01T17:23:10;1.35;;;0.90;;
74267;SDS011;62638;51.362;12.472;2023-04-01T17:25:52;1.00;;;0.70;;
74267;SDS011;62638;51.362;12.472;2023-04-01T17:31:07;2.47;;;0.95;;
74267;SDS011;62638;51.362;12.472;2023-04-01T17:39:15;2.60;;;1.35;;
74267;SDS011;62638;51.362;12.472;2023-04-01T17:42:14;2.25;;;1.35;;
74267;SDS011;62638;51.362;12.472;2023-04-01T17:45:08;2.40;;;1.48;;
74267;SDS011;62638;51.362;12.472;2023-04-01T17:47:44;5.13;;;1.90;;
74267;SDS011;62638;51.362;12.472;2023-04-01T17:50:28;3.05;;;1.15;;
74267;SDS011;62638;51.362;12.472;2023-04-01T17:55:50;4.78;;;1.73;;
74267;SDS011;62638;51.362;12.472;2023-04-01T17:58:44;6.45;;;2.10;;
74267;SDS011;62638;51.362;12.472;2023-04-01T18:01:35;4.22;;;1.42;;
74267;SDS011;62638;51.362;12.472;2023-04-01T18:04:07;6.00;;;1.92;;
74267;SDS011;62638;51.362;12.472;2023-04-01T18:15:27;3.25;;;1.42;;
74267;SDS011;62638;51.362;12.472;2023-04-01T18:18:04;1.85;;;1.10;;
74267;SDS011;62638;51.362;12.472;2023-04-01T18:23:22;1.27;;;0.82;;
74267;SDS011;62638;51.362;12.472;2023-04-01T18:25:55;0.60;;;0.57;;
74267;SDS011;62638;51.362;12.472;2023-04-01T18:28:39;2.63;;;0.95;;
74267;SDS011;62638;51.362;12.472;2023-04-01T18:31:15;2.20;;;1.13;;
74267;SDS011;62638;51.362;12.472;2023-04-01T18:33:49;4.00;;;2.00;;
74267;SDS011;62638;51.362;12.472;2023-04-01T18:39:33;1.90;;;1.02;;
74267;SDS011;62638;51.362;12.472;2023-04-01T18:44:53;3.85;;;1.38;;
74267;SDS011;62638;51.362;12.472;2023-04-01T18:50:34;4.18;;;1.52;;
74267;SDS011;62638;51.362;12.472;2023-04-01T18:53:21;7.13;;;2.42;;
74267;SDS011;62638;51.362;12.472;2023-04-01T18:55:57;8.05;;;2.67;;
74267;SDS011;62638;51.362;12.472;2023-04-01T18:58:27;2.53;;;1.42;;
74267;SDS011;62638;51.362;12.472;2023-04-01T19:06:40;2.47;;;1.40;;
74267;SDS011;62638;51.362;12.472;2023-04-01T19:09:15;2.05;;;1.33;;
74267;SDS011;62638;51.362;12.472;2023-04-01T19:11:47;5.45;;;1.70;;
74267;SDS011;62638;51.362;12.472;2023-04-01T19:17:10;2.03;;;1.25;;
74267;SDS011;62638;51.362;12.472;2023-04-01T19:25:09;4.82;;;1.85;;
74267;SDS011;62638;51.362;12.472;2023-04-01T19:27:49;1.20;;;0.90;;
74267;SDS011;62638;51.362;12.472;2023-04-01T19:30:35;2.67;;;1.45;;
74267;SDS011;62638;51.362;12.472;2023-04-01T19:36:10;2.00;;;1.35;;
74267;SDS011;62638;51.362;12.472;2023-04-01T19:41:50;2.03;;;1.40;;
74267;SDS011;62638;51.362;12.472;2023-04-01T19:44:29;2.05;;;1.25;;
74267;SDS011;62638;51.362;12.472;2023-04-01T19:49:54;2.58;;;1.25;;
74267;SDS011;62638;51.362;12.472;2023-04-01T19:52:45;1.70;;;1.05;;
74267;SDS011;62638;51.362;12.472;2023-04-01T19:58:12;1.92;;;1.00;;
74267;SDS011;62638;51.362;12.472;2023-04-01T20:01:56;1.98;;;1.40;;
74267;SDS011;62638;51.362;12.472;2023-04-01T20:07:03;3.95;;;2.10;;
74267;SDS011;62638;51.362;12.472;2023-04-01T20:15:27;2.83;;;1.60;;
74267;SDS011;62638;51.362;12.472;2023-04-01T20:17:59;1.85;;;0.77;;
74267;SDS011;62638;51.362;12.472;2023-04-01T20:20:28;1.08;;;0.75;;
74267;SDS011;62638;51.362;12.472;2023-04-01T20:25:43;2.22;;;1.45;;
74267;SDS011;62638;51.362;12.472;2023-04-01T20:36:48;1.88;;;1.17;;
74267;SDS011;62638;51.362;12.472;2023-04-01T20:42:29;1.75;;;1.35;;
74267;SDS011;62638;51.362;12.472;2023-04-01T20:45:17;3.50;;;1.52;;
74267;SDS011;62638;51.362;12.472;2023-04-01T20:50:41;4.28;;;2.35;;
74267;SDS011;62638;51.362;12.472;2023-04-01T20:53:35;2.85;;;1.50;;
74267;SDS011;62638;51.362;12.472;2023-04-01T20:56:09;3.53;;;1.52;;
74267;SDS011;62638;51.362;12.472;2023-04-01T21:09:55;2.45;;;2.00;;
74267;SDS011;62638;51.362;12.472;2023-04-01T21:15:48;3.33;;;2.00;;
74267;SDS011;62638;51.362;12.472;2023-04-01T21:21:33;3.70;;;1.70;;
74267;SDS011;62638;51.362;12.472;2023-04-01T21:24:23;5.35;;;1.83;;
74267;SDS011;62638;51.362;12.472;2023-04-01T21:33:05;3.53;;;1.65;;
74267;SDS011;62638;51.362;12.472;2023-04-01T21:35:53;7.68;;;2.65;;
74267;SDS011;62638;51.362;12.472;2023-04-01T21:38:34;3.92;;;1.55;;
74267;SDS011;62638;51.362;12.472;2023-04-01T21:41:24;5.47;;;1.73;;
74267;SDS011;62638;51.362;12.472;2023-04-01T21:44:05;1.33;;;0.90;;
74267;SDS011;62638;51.362;12.472;2023-04-01T22:01:27;3.08;;;1.77;;
74267;SDS011;62638;51.362;12.472;2023-04-01T22:07:21;4.43;;;2.03;;
74267;SDS011;62638;51.362;12.472;2023-04-01T22:10:03;4.55;;;3.05;;
74267;SDS011;62638;51.362;12.472;2023-04-01T22:12:46;5.28;;;2.72;;
74267;SDS011;62638;51.362;12.472;2023-04-01T22:18:13;1.98;;;1.48;;
74267;SDS011;62638;51.362;12.472;2023-04-01T22:21:52;4.13;;;1.65;;
74267;SDS011;62638;51.362;12.472;2023-04-01T22:24:11;3.00;;;1.73;;
74267;SDS011;62638;51.362;12.472;2023-04-01T22:26:58;3.00;;;1.63;;
74267;SDS011;62638;51.362;12.472;2023-04-01T22:29:32;4.43;;;0.95;;
74267;SDS011;62638;51.362;12.472;2023-04-01T22:32:06;1.80;;;1.23;;
74267;SDS011;62638;51.362;12.472;2023-04-01T22:34:39;2.97;;;1.50;;
74267;SDS011;62638;51.362;12.472;2023-04-01T22:42:40;2.60;;;1.70;;
74267;SDS011;62638;51.362;12.472;2023-04-01T22:45:21;2.38;;;1.40;;
74267;SDS011;62638;51.362;12.472;2023-04-01T22:48:01;3.33;;;1.98;;
74267;SDS011;62638;51.362;12.472;2023-04-01T22:53:41;4.55;;;2.47;;
74267;SDS011;62638;51.362;12.472;2023-04-01T22:56:23;0.95;;;0.70;;
74267;SDS011;62638;51.362;12.472;2023-04-01T22:58:57;2.80;;;2.03;;
74267;SDS011;62638;51.362;12.472;2023-04-01T23:01:30;1.92;;;1.02;;
74267;SDS011;62638;51.362;12.472;2023-04-01T23:04:02;1.73;;;0.85;;
74267;SDS011;62638;51.362;12.472;2023-04-01T23:06:31;3.17;;;1.90;;
74267;SDS011;62638;51.362;12.472;2023-04-01T23:12:10;2.03;;;1.00;;
74267;SDS011;62638;51.362;12.472;2023-04-01T23:20:20;3.58;;;2.78;;
74267;SDS011;62638;51.362;12.472;2023-04-01T23:28:39;1.88;;;1.35;;
74267;SDS011;62638;51.362;12.472;2023-04-01T23:34:03;2.38;;;1.52;;
74267;SDS011;62638;51.362;12.472;2023-04-01T23:36:46;2.10;;;1.13;;
74267;SDS011;62638;51.362;12.472;2023-04-01T23:39:23;2.85;;;1.17;;
74267;SDS011;62638;51.362;12.472;2023-04-01T23:41:57;3.08;;;1.67;;